Terminal Aerodrome Forecast
Issued by NWS

Home | Current Version | Previous Version | Text Only | Print | Product List | Glossary On
Versions: 1 2 3 4 5 6 7 8 9 10 11 12 13 14
620
FTUS44 KEPZ 192334
TAFLRU
TAF
KLRU 192334Z 2000/2024 14008KT P6SM VCTS SCT060CB SCT120 BKN200
     FM200500 30010KT 6SM -SHRA SCT020 BKN040 OVC100
      TEMPO 2006/2010 1SM +TSRA BR BKN015CB OVC080
     FM201000 04009KT 5SM RA BR BKN015 BKN030 OVC060
     FM201800 13010KT P6SM VCTS SCT030 BKN050CB BKN120=

USA.gov is the U.S. government's official web portal to all federal, state and local government web resources and services.